Time;durP1;ratioP1;P1;durP2;ratioP2;P2;SDS_P1;SDS_P2;PMS_P1;PMS_P2;Temp;Humidity;BMP_temperature;BMP_pressure;BME280_temperature;BME280_humidity;BME280_pressure;Samples;Min_cycle;Max_cycle;Signal;HPM_P1;HPM_P2
2022/03/10 00:02:23;;;;;;;37.90;16.17;;;;;;;12.43;34.48;102195.63;5073262;28;20029;-45
2022/03/10 00:04:49;;;;;;;41.83;18.00;;;;;;;12.59;34.57;102189.34;5076459;28;20051;-48
2022/03/10 00:07:14;;;;;;;39.83;16.30;;;;;;;12.57;34.74;102189.53;5074860;28;20040;-50
2022/03/10 00:09:39;;;;;;;38.10;15.57;;;;;;;12.90;34.86;102183.97;5072196;28;20123;-46
2022/03/10 00:12:05;;;;;;;36.33;15.95;;;;;;;12.37;35.34;102194.47;5074884;28;20033;-48
2022/03/10 00:14:31;;;;;;;39.03;17.67;;;;;;;12.47;35.78;102192.44;5089801;28;20055;-49
2022/03/10 00:16:57;;;;;;;33.90;16.13;;;;;;;12.40;35.77;102191.44;5078955;28;20035;-49
2022/03/10 00:19:22;;;;;;;42.75;17.58;;;;;;;12.25;35.90;102204.75;5085751;28;20025;-45
2022/03/10 00:21:49;;;;;;;37.27;16.03;;;;;;;12.12;35.98;102199.91;5086012;28;20035;-44
2022/03/10 00:24:15;;;;;;;39.17;16.17;;;;;;;12.16;35.71;102205.78;5078061;28;20104;-48
2022/03/10 00:26:41;;;;;;;33.53;15.13;;;;;;;12.01;36.13;102211.03;5072945;28;20041;-46
2022/03/10 00:29:07;;;;;;;;;;;;;;;11.96;36.63;102208.81;5073819;28;20029;-48
2022/03/10 00:31:34;;;;;;;36.37;14.83;;;;;;;11.93;36.74;102211.00;5073049;28;19959;-48
2022/03/10 00:34:00;;;;;;;40.47;18.08;;;;;;;11.95;36.67;102200.94;5073071;28;20048;-49
2022/03/10 00:36:25;;;;;;;33.75;15.60;;;;;;;12.01;36.70;102203.81;5075129;28;20029;-46
2022/03/10 00:38:51;;;;;;;36.00;15.60;;;;;;;12.06;36.38;102211.34;5077205;28;20033;-46
2022/03/10 00:41:17;;;;;;;33.92;15.45;;;;;;;12.09;36.25;102205.63;5076764;28;20072;-48
2022/03/10 00:43:42;;;;;;;35.22;15.65;;;;;;;11.99;36.40;102205.78;5076735;28;20033;-46
2022/03/10 00:46:08;;;;;;;33.67;15.30;;;;;;;12.01;36.43;102209.16;5077007;28;20044;-47
2022/03/10 00:48:34;;;;;;;42.07;16.37;;;;;;;11.93;36.56;102208.31;5094141;28;20070;-45
2022/03/10 00:50:59;;;;;;;32.13;16.73;;;;;;;12.03;36.52;102215.19;5082451;28;20029;-50
2022/03/10 00:53:25;;;;;;;35.60;16.17;;;;;;;12.02;36.49;102213.53;5089062;28;20044;-48
2022/03/10 00:55:51;;;;;;;35.40;17.52;;;;;;;11.82;36.63;102210.34;5089537;28;20037;-51
2022/03/10 00:58:16;;;;;;;44.63;16.25;;;;;;;11.70;36.33;102203.66;5081816;28;20048;-46
2022/03/10 01:00:41;;;;;;;40.10;16.07;;;;;;;11.50;36.93;102205.88;5093751;28;20032;-49
2022/03/10 01:03:07;;;;;;;30.77;15.23;;;;;;;11.59;37.06;102204.84;5082555;28;20024;-47
2022/03/10 01:05:33;;;;;;;37.37;14.60;;;;;;;11.65;37.13;102208.69;5087952;28;20274;-45
2022/03/10 01:07:58;;;;;;;45.30;17.02;;;;;;;11.77;36.95;102212.72;5077372;28;20096;-47
2022/03/10 01:10:24;;;;;;;31.48;15.90;;;;;;;11.71;36.97;102206.19;5093809;28;20060;-47
2022/03/10 01:12:50;;;;;;;33.80;14.87;;;;;;;11.54;37.12;102202.69;5080579;28;20040;-49
2022/03/10 01:15:19;;;;;;;32.78;15.32;;;;;;;11.55;37.17;102203.50;5089924;28;20056;-52
2022/03/10 01:17:45;;;;;;;39.75;16.00;;;;;;;11.45;37.14;102203.69;5088088;28;20037;-50
2022/03/10 01:20:11;;;;;;;38.72;16.95;;;;;;;11.42;37.09;102206.69;5082063;28;20121;-46
2022/03/10 01:22:37;;;;;;;36.90;14.90;;;;;;;11.36;37.61;102202.84;5093375;28;20028;-47
2022/03/10 01:25:04;;;;;;;39.45;16.70;;;;;;;11.33;37.78;102203.19;5082322;28;20025;-46
2022/03/10 01:27:31;;;;;;;35.45;15.38;;;;;;;11.03;38.07;102194.78;5087692;28;20045;-48
2022/03/10 01:29:57;;;;;;;32.90;12.80;;;;;;;10.96;38.28;102199.97;5089555;28;20040;-48
2022/03/10 01:32:23;;;;;;;38.13;15.80;;;;;;;10.83;38.11;102199.59;5080216;28;20059;-49
2022/03/10 01:34:49;;;;;;;39.60;15.10;;;;;;;10.89;38.20;102193.59;5093335;28;20028;-45
2022/03/10 01:37:15;;;;;;;40.80;15.53;;;;;;;11.04;37.95;102197.28;5083555;28;20468;-52
2022/03/10 01:39:40;;;;;;;36.35;15.68;;;;;;;10.78;38.88;102201.91;5086151;28;20060;-49
2022/03/10 01:42:07;;;;;;;33.97;15.50;;;;;;;11.09;38.53;102199.47;5090637;28;20028;-47
2022/03/10 01:44:33;;;;;;;30.15;14.02;;;;;;;11.33;38.19;102209.38;5079850;28;20043;-45
2022/03/10 01:46:59;;;;;;;35.55;13.27;;;;;;;10.95;39.01;102205.47;5091393;28;20063;-46
2022/03/10 01:49:25;;;;;;;35.58;14.95;;;;;;;11.04;38.67;102207.16;5084793;28;20028;-47
2022/03/10 01:51:51;;;;;;;35.77;14.93;;;;;;;11.12;38.53;102206.34;5084644;28;20032;-45
2022/03/10 01:54:18;;;;;;;;;;;;;;;11.17;38.73;102204.81;5091579;28;20033;-43
2022/03/10 01:56:44;;;;;;;34.88;15.77;;;;;;;11.12;38.62;102203.66;5075095;28;19976;-45
2022/03/10 01:59:09;;;;;;;33.80;16.47;;;;;;;11.04;38.89;102202.63;5094795;28;20035;-45
2022/03/10 02:01:36;;;;;;;33.88;14.70;;;;;;;10.93;39.26;102196.75;5086704;28;20058;-45
2022/03/10 02:04:02;;;;;;;38.72;15.35;;;;;;;10.96;39.28;102199.97;5089494;28;20037;-49
2022/03/10 02:06:28;;;;;;;36.60;15.00;;;;;;;10.92;39.09;102195.94;5079527;28;20050;-48
2022/03/10 02:11:38;;;;;;;31.33;14.57;;;;;;;10.73;39.11;102200.56;5085843;28;20033;-45
2022/03/10 02:17:19;;;;;;;33.80;15.95;;;;;;;10.74;39.68;102202.25;5082547;28;20476;-45
2022/03/10 02:19:34;;;;;;;36.17;16.25;;;;;;;10.83;39.60;102199.59;5086192;28;20032;-46
2022/03/10 02:22:08;;;;;;;32.83;14.93;;;;;;;10.76;39.67;102200.25;5088861;28;20089;-44
2022/03/10 02:24:40;;;;;;;31.30;14.75;;;;;;;11.00;39.10;102195.94;5079045;28;20040;-46
2022/03/10 02:27:21;;;;;;;37.33;17.08;;;;;;;11.39;38.58;102197.13;5089619;28;20051;-46
2022/03/10 02:29:49;;;;;;;36.92;15.70;;;;;;;11.06;39.29;102199.81;5086796;28;20040;-44
2022/03/10 02:32:15;;;;;;;34.20;15.27;;;;;;;11.03;39.22;102200.97;5079850;28;20064;-44
2022/03/10 02:34:41;;;;;;;;;;;;;;;10.89;39.21;102188.25;5092421;28;20036;-48
2022/03/10 02:37:08;;;;;;;30.57;13.73;;;;;;;10.95;39.29;102197.44;5081068;28;19916;-45
2022/03/10 02:39:33;;;;;;;36.35;14.65;;;;;;;10.82;39.50;102193.41;5086217;28;20041;-48
2022/03/10 02:42:00;;;;;;;44.28;16.20;;;;;;;10.82;39.48;102196.09;5088172;28;20100;-45
2022/03/10 02:44:26;;;;;;;29.85;14.27;;;;;;;10.78;39.59;102192.06;5078829;28;20041;-50
2022/03/10 02:46:51;;;;;;;33.37;14.80;;;;;;;10.81;39.57;102191.72;5091823;28;20160;-48
2022/03/10 02:49:17;;;;;;;27.63;10.97;;;;;;;10.76;40.01;102200.25;5075239;28;20037;-47
2022/03/10 02:51:44;;;;;;;32.75;14.90;;;;;;;10.83;39.93;102200.44;5085745;28;20040;-48
2022/03/10 02:54:09;;;;;;;34.67;14.50;;;;;;;10.76;40.18;102196.75;5081118;28;20075;-50
2022/03/10 02:56:35;;;;;;;33.58;14.80;;;;;;;10.58;40.87;102194.16;5091294;28;20036;-46
2022/03/10 02:59:00;;;;;;;33.80;15.13;;;;;;;10.62;40.54;102190.19;5078782;28;20052;-48
2022/03/10 03:01:25;;;;;;;33.20;14.20;;;;;;;10.58;40.58;102204.84;5087105;28;20032;-51
2022/03/10 03:03:51;;;;;;;28.97;13.77;;;;;;;10.41;40.95;102202.16;5086766;28;20036;-47
2022/03/10 03:06:16;;;;;;;35.40;14.77;;;;;;;10.47;41.11;102198.81;5080115;28;20073;-46
2022/03/10 03:08:42;;;;;;;41.97;15.25;;;;;;;10.44;41.67;102204.50;5091405;28;20062;-47
2022/03/10 03:11:08;;;;;;;36.60;14.57;;;;;;;10.49;41.89;102204.00;5080311;28;20036;-48
2022/03/10 03:13:34;;;;;;;34.17;14.85;;;;;;;10.44;41.63;102204.50;5085804;28;20041;-46
2022/03/10 03:16:00;;;;;;;34.47;16.17;;;;;;;10.53;41.75;102209.88;5087481;28;20041;-47
2022/03/10 03:18:26;;;;;;;34.92;15.10;;;;;;;10.46;42.21;102207.84;5078461;28;20100;-48
2022/03/10 03:20:51;;;;;;;32.30;16.57;;;;;;;10.37;42.59;102211.44;5091151;28;20079;-47
2022/03/10 03:23:17;;;;;;;34.23;14.30;;;;;;;10.41;42.72;102214.66;5081454;28;20051;-46
2022/03/10 03:25:42;;;;;;;35.47;15.07;;;;;;;10.47;42.76;102211.34;5084680;28;20047;-44
2022/03/10 03:28:08;;;;;;;39.50;15.17;;;;;;;10.47;42.92;102214.00;5088212;28;20040;-46
2022/03/10 03:30:34;;;;;;;31.17;15.05;;;;;;;10.44;43.03;102217.00;5077778;28;20045;-49
2022/03/10 03:33:00;;;;;;;38.05;15.30;;;;;;;10.40;42.84;102216.53;5089572;28;20048;-47
2022/03/10 03:35:25;;;;;;;34.50;16.40;;;;;;;10.35;42.91;102224.13;5082206;28;20029;-45
2022/03/10 03:37:51;;;;;;;36.33;15.20;;;;;;;10.20;42.85;102229.22;5083373;28;20029;-47
2022/03/10 03:40:16;;;;;;;34.10;15.17;;;;;;;10.16;42.96;102223.38;5089208;28;20290;-45
2022/03/10 03:42:42;;;;;;;33.10;14.40;;;;;;;10.15;42.89;102229.72;5077790;28;20063;-46
2022/03/10 03:45:08;;;;;;;32.63;14.33;;;;;;;10.05;43.17;102229.00;5086981;28;20029;-46
2022/03/10 03:47:34;;;;;;;30.63;14.85;;;;;;;10.01;43.11;102235.66;5084658;28;20045;-47
2022/03/10 03:50:00;;;;;;;39.17;14.80;;;;;;;9.88;43.18;102231.53;5086926;28;20040;-48
2022/03/10 03:52:25;;;;;;;35.17;15.17;;;;;;;9.97;43.37;102231.63;5078389;28;20044;-49
2022/03/10 03:54:50;;;;;;;39.47;15.87;;;;;;;9.93;43.36;102235.59;5091056;28;20027;-46
2022/03/10 03:57:16;;;;;;;33.73;14.17;;;;;;;9.94;43.55;102238.09;5080675;28;20024;-44
2022/03/10 03:59:41;;;;;;;31.50;15.13;;;;;;;9.85;43.78;102242.56;5084586;28;20041;-47
2022/03/10 04:02:08;;;;;;;33.53;14.43;;;;;;;9.92;43.79;102242.78;5087613;28;20074;-46
2022/03/10 04:04:33;;;;;;;34.83;15.90;;;;;;;9.92;43.68;102240.09;5093846;28;20052;-48
2022/03/10 04:06:59;;;;;;;35.87;15.70;;;;;;;9.96;43.83;102232.63;5078208;28;20040;-48
2022/03/10 04:09:25;;;;;;;32.93;14.87;;;;;;;9.88;44.16;102234.22;5087095;28;20033;-47
2022/03/10 04:11:51;;;;;;;37.05;15.95;;;;;;;9.85;44.43;102233.72;5087453;28;20101;-46
2022/03/10 04:14:18;;;;;;;35.10;17.07;;;;;;;9.93;44.32;102232.94;5083707;28;20041;-46
2022/03/10 04:16:44;;;;;;;33.22;14.10;;;;;;;9.95;44.01;102230.94;5094427;28;20037;-45
2022/03/10 04:19:09;;;;;;;34.03;15.07;;;;;;;9.92;44.33;102232.09;5083563;28;20032;-46
2022/03/10 04:21:35;;;;;;;36.73;15.23;;;;;;;9.94;44.11;102239.94;5089252;28;20278;-45
2022/03/10 04:24:00;;;;;;;36.83;15.63;;;;;;;9.96;44.22;102237.97;5090373;28;20048;-46
2022/03/10 04:26:26;;;;;;;35.40;14.85;;;;;;;9.89;44.05;102241.25;5081951;28;20041;-53
2022/03/10 04:28:51;;;;;;;33.60;14.23;;;;;;;9.85;44.31;102234.53;5094565;28;20075;-45
2022/03/10 04:31:17;;;;;;;32.43;14.03;;;;;;;10.08;44.15;102233.19;5083896;28;20040;-48
2022/03/10 04:33:43;;;;;;;31.17;14.33;;;;;;;10.04;44.28;102238.00;5087829;28;20101;-49
2022/03/10 04:36:08;;;;;;;33.55;14.68;;;;;;;10.05;44.52;102234.34;5090867;28;20040;-46
2022/03/10 04:38:34;;;;;;;35.83;15.67;;;;;;;10.03;44.65;102237.19;5080848;28;20069;-46
2022/03/10 04:40:59;;;;;;;34.47;15.60;;;;;;;10.01;44.61;102241.00;5093681;28;20025;-46
2022/03/10 04:43:24;;;;;;;32.28;14.82;;;;;;;10.00;44.21;102242.81;5084810;28;20058;-46
2022/03/10 04:45:50;;;;;;;33.37;14.73;;;;;;;9.85;44.49;102250.56;5086780;28;20082;-44
2022/03/10 04:48:15;;;;;;;36.77;14.47;;;;;;;9.89;44.27;102251.94;5091669;28;20040;-44
2022/03/10 04:50:41;;;;;;;35.30;14.67;;;;;;;9.84;44.59;102259.56;5080763;28;20037;-44
2022/03/10 04:53:06;;;;;;;37.20;15.27;;;;;;;9.80;44.56;102249.34;5092701;28;20033;-46
2022/03/10 04:55:32;;;;;;;30.67;14.80;;;;;;;9.64;44.41;102252.72;5085532;28;20032;-45
2022/03/10 04:57:57;;;;;;;36.55;15.40;;;;;;;9.75;44.28;102256.00;5085555;28;20064;-47
2022/03/10 05:00:23;;;;;;;36.17;15.05;;;;;;;9.83;44.94;102257.09;5092596;28;20044;-48
2022/03/10 05:02:49;;;;;;;34.83;15.07;;;;;;;9.78;45.69;102252.19;5080564;28;20029;-46
2022/03/10 05:05:17;;;;;;;34.53;15.82;;;;;;;9.76;45.87;102246.16;5091494;28;20036;-45
2022/03/10 05:07:43;;;;;;;32.17;14.90;;;;;;;9.79;46.35;102250.34;5086796;28;20060;-48
2022/03/10 05:10:10;;;;;;;32.30;16.08;;;;;;;9.65;46.38;102243.72;5083818;28;20044;-46
2022/03/10 05:13:01;;;;;;;37.53;15.38;;;;;;;9.64;46.38;102240.22;5093569;28;20086;-48
2022/03/10 05:15:31;;;;;;;34.97;15.30;;;;;;;9.65;46.43;102249.06;5084554;28;20048;-50
2022/03/10 05:17:57;;;;;;;33.90;15.40;;;;;;;9.64;45.84;102237.56;5085614;28;20060;-44
2022/03/10 05:20:26;;;;;;;32.95;15.02;;;;;;;9.72;45.17;102245.63;5092125;28;20052;-48
2022/03/10 05:22:55;;;;;;;36.95;14.98;;;;;;;9.73;45.07;102252.66;5079452;28;20100;-47
2022/03/10 05:25:23;;;;;;;38.75;16.55;;;;;;;9.66;44.79;102240.91;5090467;28;20053;-47
2022/03/10 05:27:49;;;;;;;38.38;15.73;;;;;;;9.65;44.83;102238.38;5087042;28;20039;-51
2022/03/10 05:30:18;;;;;;;34.33;15.68;;;;;;;9.58;44.95;102244.34;5082689;28;20033;-45
2022/03/10 05:32:44;;;;;;;33.47;14.40;;;;;;;9.55;44.95;102242.00;5092736;28;20037;-47
2022/03/10 05:35:14;;;;;;;37.20;15.17;;;;;;;9.48;45.02;102243.63;5081572;28;20038;-47
2022/03/10 05:37:40;;;;;;;40.33;16.65;;;;;;;9.57;45.13;102245.34;5087588;28;20422;-47
2022/03/10 05:40:07;;;;;;;;;;;;;;;9.51;45.68;102245.13;5089734;28;20100;-46
2022/03/10 05:42:33;;;;;;;33.20;13.82;;;;;;;9.38;45.68;102242.84;5080168;28;19913;-47
2022/03/10 05:44:58;;;;;;;37.60;16.30;;;;;;;9.49;45.63;102242.63;5092989;28;20093;-46
2022/03/10 05:47:24;;;;;;;28.77;13.73;;;;;;;9.48;46.04;102243.63;5083283;28;20066;-47
2022/03/10 05:49:49;;;;;;;34.53;14.20;;;;;;;9.37;46.11;102246.50;5086060;28;20037;-47
2022/03/10 05:52:15;;;;;;;37.13;14.63;;;;;;;9.47;46.00;102241.94;5090237;28;20072;-48
2022/03/10 05:54:41;;;;;;;35.08;15.98;;;;;;;9.54;46.01;102243.00;5079459;28;20029;-46
2022/03/10 05:57:08;;;;;;;35.50;16.13;;;;;;;9.50;45.71;102235.44;5091803;28;20037;-45
2022/03/10 05:59:33;;;;;;;37.47;16.30;;;;;;;9.52;45.23;102236.97;5084466;28;20047;-46
2022/03/10 06:01:59;;;;;;;36.17;14.23;;;;;;;9.50;45.36;102241.63;5084631;28;20093;-44
2022/03/10 06:04:24;;;;;;;34.80;15.60;;;;;;;9.45;45.36;102238.53;5091450;28;20043;-48
2022/03/10 06:06:50;;;;;;;30.90;13.97;;;;;;;9.49;45.53;102242.63;5079473;28;20036;-45
2022/03/10 06:09:15;;;;;;;34.87;15.80;;;;;;;9.47;45.33;102248.09;5090382;28;20032;-49
2022/03/10 06:11:41;;;;;;;41.43;14.80;;;;;;;9.44;45.42;102242.22;5085148;28;20032;-50
2022/03/10 06:14:06;;;;;;;32.85;14.23;;;;;;;9.41;45.24;102246.06;5083328;28;20044;-45
2022/03/10 06:16:32;;;;;;;37.60;14.87;;;;;;;9.36;45.26;102247.50;5092178;28;20036;-45
2022/03/10 06:18:58;;;;;;;31.50;15.30;;;;;;;9.48;45.07;102251.63;5079199;28;20090;-47
2022/03/10 06:21:24;;;;;;;;;;;;;;;9.38;45.22;102253.50;5089243;28;20064;-47
2022/03/10 06:23:49;;;;;;;34.20;14.93;;;;;;;9.35;45.24;102259.16;5085992;28;19927;-45
2022/03/10 06:26:15;;;;;;;48.47;16.17;;;;;;;9.41;45.64;102263.88;5081992;28;20070;-48
2022/03/10 06:28:40;;;;;;;37.67;15.33;;;;;;;9.41;45.82;102261.22;5089868;28;20056;-46
2022/03/10 06:31:06;;;;;;;34.63;15.30;;;;;;;9.54;45.91;102264.34;5091450;28;20040;-47
2022/03/10 06:33:32;;;;;;;35.58;15.52;;;;;;;9.49;46.46;102261.31;5083192;28;20040;-44
2022/03/10 06:35:57;;;;;;;37.33;15.57;;;;;;;9.54;46.50;102264.34;5083870;28;20248;-47
2022/03/10 06:38:23;;;;;;;32.22;15.07;;;;;;;9.55;46.55;102271.38;5075512;28;20067;-48
2022/03/10 06:40:48;;;;;;;36.80;15.20;;;;;;;9.54;46.48;102280.38;5091765;28;20058;-45
2022/03/10 06:43:15;;;;;;;29.97;14.77;;;;;;;9.56;46.63;102285.56;5080298;28;20339;-47
2022/03/10 06:45:42;;;;;;;32.53;15.68;;;;;;;9.58;46.48;102281.75;5086098;28;20063;-44
2022/03/10 06:48:07;;;;;;;28.53;12.50;;;;;;;9.53;46.04;102286.72;5088005;28;20047;-47
2022/03/10 06:50:33;;;;;;;35.10;15.80;;;;;;;9.55;45.71;102287.41;5079032;28;20033;-47
2022/03/10 06:52:58;;;;;;;37.03;16.70;;;;;;;9.56;45.65;102290.88;5091248;28;20277;-47
2022/03/10 06:55:24;;;;;;;33.80;14.30;;;;;;;9.64;44.96;102282.97;5081617;28;20032;-47
2022/03/10 06:57:52;;;;;;;31.95;15.65;;;;;;;9.61;44.74;102276.09;5085049;28;20040;-46
2022/03/10 07:00:20;;;;;;;34.30;15.60;;;;;;;9.51;45.01;102283.34;5088815;28;20036;-45
2022/03/10 07:02:46;;;;;;;33.20;15.23;;;;;;;9.62;45.17;102279.63;5078234;28;20044;-45
2022/03/10 07:05:12;;;;;;;29.83;14.70;;;;;;;9.61;45.00;102281.44;5089957;28;20158;-46
2022/03/10 07:07:38;;;;;;;35.57;14.20;;;;;;;9.58;45.03;102279.06;5082989;28;20041;-48
2022/03/10 07:10:04;;;;;;;33.63;14.82;;;;;;;9.59;44.95;102278.09;5082699;28;20096;-45
2022/03/10 07:12:33;;;;;;;39.55;15.25;;;;;;;9.70;44.87;102273.50;5089883;28;20032;-46
2022/03/10 07:14:59;;;;;;;40.67;15.13;;;;;;;9.72;44.81;102276.88;5076736;28;20059;-47
2022/03/10 07:17:24;;;;;;;39.23;15.67;;;;;;;9.81;44.38;102273.25;5081077;28;20032;-48
2022/03/10 07:19:50;;;;;;;32.22;15.02;;;;;;;10.04;43.63;102281.63;5084677;28;20052;-46
2022/03/10 07:22:19;;;;;;;31.10;14.17;;;;;;;9.97;44.07;102280.53;5082347;28;20036;-46
2022/03/10 07:24:45;;;;;;;30.50;14.60;;;;;;;10.04;43.82;102280.78;5075434;28;20104;-46
2022/03/10 07:27:11;;;;;;;36.70;15.82;;;;;;;10.18;43.46;102282.88;5090100;28;20028;-45
2022/03/10 07:29:36;;;;;;;36.08;14.57;;;;;;;10.10;43.36;102274.78;5082581;28;20020;-46
2022/03/10 07:32:02;;;;;;;39.53;14.50;;;;;;;10.04;43.60;102276.28;5077523;28;20060;-48
2022/03/10 07:34:27;;;;;;;37.20;15.75;;;;;;;10.28;43.60;102273.91;5089475;28;20349;-45
2022/03/10 07:36:53;;;;;;;33.87;14.73;;;;;;;10.33;43.15;102282.28;5077548;28;20033;-48
2022/03/10 07:39:18;;;;;;;29.98;11.32;;;;;;;10.42;43.29;102278.72;5089151;28;20056;-47
2022/03/10 07:41:44;;;;;;;34.03;15.07;;;;;;;10.66;42.77;102281.66;5074484;28;20037;-45
2022/03/10 07:44:09;;;;;;;33.60;16.00;;;;;;;10.70;42.61;102281.16;5086808;28;20055;-46
2022/03/10 07:46:35;;;;;;;37.53;14.17;;;;;;;10.61;42.75;102292.84;5077379;28;20043;-48
2022/03/10 07:49:00;;;;;;;33.87;14.63;;;;;;;10.80;42.53;102288.22;5090676;28;20092;-48
2022/03/10 07:51:25;;;;;;;32.83;14.83;;;;;;;10.83;42.23;102285.22;5074175;28;20148;-48
2022/03/10 07:53:51;;;;;;;33.67;14.03;;;;;;;11.08;42.12;102279.97;5083303;28;20071;-50
2022/03/10 07:56:17;;;;;;;37.20;15.60;;;;;;;11.28;41.45;102291.22;5080485;28;20281;-50
2022/03/10 07:58:42;;;;;;;32.67;13.97;;;;;;;11.28;41.54;102286.69;5090512;28;20108;-47
2022/03/10 08:01:07;;;;;;;36.10;14.60;;;;;;;11.44;41.14;102287.72;5074225;28;20036;-52
2022/03/10 08:03:34;;;;;;;32.57;13.63;;;;;;;11.53;40.97;102288.56;5081755;28;20059;-48
2022/03/10 08:06:00;;;;;;;34.90;14.90;;;;;;;11.60;41.36;102293.09;5082702;28;20032;-45
2022/03/10 08:08:26;;;;;;;33.17;13.40;;;;;;;11.73;40.96;102287.25;5089013;28;20059;-45
2022/03/10 08:10:51;;;;;;;34.17;14.80;;;;;;;11.76;41.01;102292.28;5075818;28;20029;-48
2022/03/10 08:13:18;;;;;;;35.08;14.55;;;;;;;11.80;41.25;102292.78;5078946;28;20111;-45
2022/03/10 08:15:44;;;;;;;30.83;14.20;;;;;;;12.11;41.06;102291.25;5084710;28;20051;-50
2022/03/10 08:18:10;;;;;;;31.93;13.60;;;;;;;12.25;41.25;102301.31;5074132;28;20056;-51
2022/03/10 08:20:35;;;;;;;33.92;15.23;;;;;;;12.39;40.83;102297.06;5073431;28;20106;-49
2022/03/10 08:23:02;;;;;;;41.67;15.83;;;;;;;12.46;40.95;102298.09;5075033;28;20132;-48
2022/03/10 08:25:27;;;;;;;36.78;15.00;;;;;;;12.47;40.89;102294.38;5074271;28;20021;-48
2022/03/10 08:27:53;;;;;;;34.80;15.10;;;;;;;12.66;41.09;102296.84;5074400;28;20051;-50
2022/03/10 08:30:18;;;;;;;35.53;14.70;;;;;;;12.55;41.25;102293.50;5073630;28;20029;-47
2022/03/10 08:32:44;;;;;;;33.00;14.53;;;;;;;12.86;40.69;102283.81;5072766;28;20105;-46
2022/03/10 08:35:10;;;;;;;31.63;14.85;;;;;;;12.99;40.54;102281.41;5073675;28;20033;-47
2022/03/10 08:37:36;;;;;;;48.45;16.35;;;;;;;12.86;40.05;102283.81;5073251;28;20067;-46
2022/03/10 08:40:03;;;;;;;36.27;15.30;;;;;;;13.05;39.97;102278.00;5073138;28;20033;-49
2022/03/10 08:42:29;;;;;;;34.40;15.07;;;;;;;13.49;39.44;102275.75;5072874;28;20033;-48
2022/03/10 08:44:54;;;;;;;31.90;15.33;;;;;;;13.78;38.71;102274.16;5073953;28;20059;-48
2022/03/10 08:47:20;;;;;;;34.13;15.07;;;;;;;14.14;38.26;102265.44;5072939;28;20044;-50
2022/03/10 08:49:45;;;;;;;37.70;16.30;;;;;;;14.16;38.03;102270.59;5072543;28;20033;-48
2022/03/10 08:52:11;;;;;;;34.10;15.02;;;;;;;14.42;37.43;102270.16;5072383;28;20052;-48
2022/03/10 08:54:36;;;;;;;34.75;16.13;;;;;;;14.69;36.97;102275.88;5072980;28;20041;-47
2022/03/10 08:57:02;;;;;;;32.47;15.53;;;;;;;15.10;36.14;102265.63;5073484;28;20052;-46
2022/03/10 08:59:28;;;;;;;33.00;16.10;;;;;;;15.24;35.88;102270.13;5076385;28;20040;-47
2022/03/10 09:01:53;;;;;;;30.88;14.95;;;;;;;15.62;35.40;102266.34;5076718;28;20052;-46
2022/03/10 09:04:20;;;;;;;32.17;15.73;;;;;;;16.23;34.66;102269.50;5076489;28;20040;-47
2022/03/10 09:06:45;;;;;;;;;;;;;;;16.37;34.00;102270.41;5077340;28;20404;-46
2022/03/10 09:09:11;;;;;;;33.90;16.07;;;;;;;16.85;33.66;102273.13;5076339;28;19917;-47
2022/03/10 09:11:37;;;;;;;34.80;16.40;;;;;;;16.87;33.52;102273.75;5076104;28;20037;-46
2022/03/10 09:14:03;;;;;;;35.77;16.70;;;;;;;17.27;32.88;102264.94;5076052;28;20029;-50
2022/03/10 09:16:29;;;;;;;39.40;16.60;;;;;;;18.25;31.74;102267.22;5076224;28;20357;-46
2022/03/10 09:18:55;;;;;;;37.42;17.40;;;;;;;18.49;31.22;102266.53;5076475;28;20036;-47
2022/03/10 09:21:21;;;;;;;37.77;16.53;;;;;;;18.59;30.67;102262.53;5074795;28;20045;-48
2022/03/10 09:23:46;;;;;;;35.50;18.20;;;;;;;19.29;30.16;102264.47;5076138;28;20293;-51
2022/03/10 09:26:12;;;;;;;33.20;16.57;;;;;;;19.86;29.53;102260.03;5072952;28;20080;-50
2022/03/10 09:28:37;;;;;;;37.60;17.23;;;;;;;20.05;29.80;102266.34;5075509;28;20043;-48
2022/03/10 09:31:03;;;;;;;33.28;16.30;;;;;;;20.70;28.59;102261.44;5076335;28;20047;-48
2022/03/10 09:33:29;;;;;;;34.67;17.00;;;;;;;20.70;28.47;102264.97;5075918;28;20029;-47
2022/03/10 09:35:56;;;;;;;36.58;17.17;;;;;;;22.02;27.31;102261.50;5076044;28;20043;-51
2022/03/10 09:38:21;;;;;;;32.33;16.90;;;;;;;21.51;27.74;102247.50;5075965;28;20088;-51
2022/03/10 09:40:52;;;;;;;32.22;17.00;;;;;;;22.33;26.98;102255.88;5075616;28;20265;-47
2022/03/10 09:43:21;;;;;;;36.70;18.17;;;;;;;22.25;26.95;102248.91;5075542;28;20042;-49
2022/03/10 09:45:48;;;;;;;38.33;18.07;;;;;;;22.62;26.56;102247.78;5075749;28;20274;-47
2022/03/10 09:48:15;;;;;;;33.23;17.70;;;;;;;23.05;25.84;102253.75;5075623;28;20304;-52
2022/03/10 09:50:40;;;;;;;33.30;17.10;;;;;;;24.04;25.04;102246.03;5075390;28;20032;-50
2022/03/10 09:53:06;;;;;;;39.30;19.77;;;;;;;23.66;25.28;102244.09;5075471;28;20063;-48
2022/03/10 09:55:31;;;;;;;34.03;18.63;;;;;;;24.74;24.47;102245.50;5075179;28;20270;-49
2022/03/10 09:57:58;;;;;;;31.75;18.10;;;;;;;24.89;24.11;102239.41;5075093;28;20029;-50
2022/03/10 10:00:24;;;;;;;33.23;18.10;;;;;;;24.33;24.37;102242.31;5075142;28;20060;-48
2022/03/10 10:02:51;;;;;;;28.83;17.58;;;;;;;25.01;24.00;102252.91;5075291;28;20092;-52
2022/03/10 10:05:21;;;;;;;38.63;17.70;;;;;;;24.48;23.99;102239.75;5074752;28;20058;-46
2022/03/10 10:08:06;;;;;;;36.60;19.13;;;;;;;24.57;23.72;102248.34;5074935;28;20040;-49
2022/03/10 10:10:34;;;;;;;36.33;19.43;;;;;;;25.15;23.82;102252.50;5074627;28;20033;-47
2022/03/10 10:13:05;;;;;;;36.60;19.03;;;;;;;26.32;22.95;102245.31;5074025;28;20039;-49
2022/03/10 10:15:34;;;;;;;39.87;21.03;;;;;;;27.14;21.85;102249.34;5074353;28;20035;-51
2022/03/10 10:18:00;;;;;;;44.07;23.17;;;;;;;27.81;21.25;102242.16;5074472;28;20044;-48
2022/03/10 10:20:30;;;;;;;40.65;20.17;;;;;;;26.53;21.69;102247.31;5088282;28;20057;-48
2022/03/10 10:22:56;;;;;;;37.87;18.70;;;;;;;26.65;21.44;102241.59;5076719;28;20120;-49
2022/03/10 10:25:23;;;;;;;41.67;20.27;;;;;;;26.56;21.62;102236.59;5077692;28;20042;-51
2022/03/10 10:27:48;;;;;;;34.33;18.87;;;;;;;26.81;21.69;102234.19;5085035;28;20040;-50
2022/03/10 10:30:15;;;;;;;33.08;18.33;;;;;;;28.26;21.00;102236.78;5082339;28;20525;-48
2022/03/10 10:32:43;;;;;;;35.40;17.95;;;;;;;28.89;20.18;102238.88;5075386;28;20052;-49
2022/03/10 10:35:20;;;;;;;33.37;18.50;;;;;;;29.62;19.60;102233.59;5074902;28;20032;-50
2022/03/10 10:37:48;;;;;;;;;;;;;;;29.28;19.17;102242.69;5073729;28;20060;-51
2022/03/10 10:40:20;;;;;;;36.03;18.60;;;;;;;29.37;19.65;102233.81;5074359;28;19920;-48
2022/03/10 10:42:45;;;;;;;39.10;18.80;;;;;;;29.84;19.22;102239.69;5072496;28;20032;-48
2022/03/10 10:45:27;;;;;;;;;;;;;;;30.31;18.93;102240.75;5074402;28;20060;-51
2022/03/10 10:48:08;;;;;;;34.23;17.97;;;;;;;30.95;18.63;102239.59;5074392;28;19920;-48
2022/03/10 10:50:36;;;;;;;31.73;18.37;;;;;;;30.31;18.63;102238.00;5074092;28;20053;-50
2022/03/10 10:53:05;;;;;;;37.80;19.67;;;;;;;29.29;19.25;102233.31;5073340;28;20065;-51
2022/03/10 10:55:35;;;;;;;32.10;18.73;;;;;;;29.81;19.40;102235.59;5074733;28;20071;-51
2022/03/10 10:58:13;;;;;;;32.50;18.67;;;;;;;30.92;18.17;102237.44;5071316;28;20044;-53
2022/03/10 11:00:41;;;;;;;37.07;18.73;;;;;;;30.74;18.12;102234.38;5070833;28;20391;-54
2022/03/10 11:03:19;;;;;;;31.67;18.23;;;;;;;31.98;17.38;102242.44;5074767;28;20132;-51
2022/03/10 11:05:44;;;;;;;34.65;17.63;;;;;;;32.07;17.34;102236.16;5070054;28;20033;-50
2022/03/10 11:08:10;;;;;;;32.80;18.35;;;;;;;32.54;17.30;102230.47;5077147;28;20416;-50
2022/03/10 11:10:35;;;;;;;31.58;17.33;;;;;;;32.45;17.43;102233.97;5072112;28;20104;-50
2022/03/10 11:13:01;;;;;;;29.25;18.15;;;;;;;33.27;16.72;102233.09;5073369;28;20131;-49
2022/03/10 11:15:26;;;;;;;29.48;16.70;;;;;;;33.20;16.79;102235.47;5074483;28;20069;-50
2022/03/10 11:17:52;;;;;;;33.72;17.73;;;;;;;31.94;17.01;102226.75;5075546;28;20036;-46